Time;durP1;ratioP1;P1;durP2;ratioP2;P2;SDS_P1;SDS_P2;PMS_P1;PMS_P2;Temp;Humidity;BMP_temperature;BMP_pressure;BME280_temperature;BME280_humidity;BME280_pressure;Samples;Min_cycle;Max_cycle;Signal;HPM_P1;HPM_P2
2022/01/10 00:00:37;;;;;;;1999.90;999.90;;;1.50;99.90;;;;;;5029599;28;20045;-83
2022/01/10 00:03:04;;;;;;;1999.90;999.90;;;1.40;99.90;;;;;;5013737;28;20049;-83
2022/01/10 00:05:30;;;;;;;1999.90;999.90;;;1.40;99.90;;;;;;5013897;28;20098;-83
2022/01/10 00:07:56;;;;;;;1999.90;999.90;;;1.40;99.90;;;;;;5014431;28;20061;-83
2022/01/10 00:10:22;;;;;;;1999.90;999.90;;;1.40;99.90;;;;;;5043807;28;20033;-83
2022/01/10 00:12:48;;;;;;;1999.90;999.90;;;1.40;99.90;;;;;;5027552;28;20103;-84
2022/01/10 00:15:16;;;;;;;1999.90;999.90;;;1.40;99.90;;;;;;5029678;28;20041;-83
2022/01/10 00:17:43;;;;;;;1999.90;999.90;;;1.40;99.90;;;;;;5012456;28;20184;-84
2022/01/10 00:20:11;;;;;;;1999.90;999.90;;;1.40;99.90;;;;;;5027368;28;20041;-83
2022/01/10 00:22:40;;;;;;;1999.90;999.90;;;1.30;99.90;;;;;;5046814;28;20042;-84
2022/01/10 00:25:06;;;;;;;1999.90;999.90;;;1.30;99.90;;;;;;5013006;28;20042;-83
2022/01/10 00:27:32;;;;;;;1999.90;999.90;;;1.30;99.90;;;;;;5026677;28;20050;-83
2022/01/10 00:29:58;;;;;;;1999.90;999.90;;;1.30;99.90;;;;;;5028994;28;20129;-83
2022/01/10 00:32:24;;;;;;;1999.90;999.90;;;1.20;99.90;;;;;;5029708;28;20041;-83
2022/01/10 00:34:51;;;;;;;1999.90;999.90;;;1.10;99.90;;;;;;5029133;28;20048;-84
2022/01/10 00:37:17;;;;;;;1999.90;999.90;;;1.00;99.90;;;;;;5026572;28;20073;-84
2022/01/10 00:39:43;;;;;;;1999.90;999.90;;;1.00;99.90;;;;;;5042748;28;20060;-83
2022/01/10 00:42:09;;;;;;;1999.90;999.90;;;0.90;99.90;;;;;;5012784;28;20037;-83
2022/01/10 00:44:38;;;;;;;1999.90;999.90;;;0.90;99.90;;;;;;5012887;28;20073;-83
2022/01/10 00:47:04;;;;;;;1999.90;999.90;;;0.90;99.90;;;;;;5011173;28;20406;-84
2022/01/10 00:49:30;;;;;;;1999.90;999.90;;;0.80;99.90;;;;;;5012846;28;20037;-83
2022/01/10 00:51:56;;;;;;;1999.90;999.90;;;0.80;99.90;;;;;;5046300;28;20121;-83
2022/01/10 00:54:22;;;;;;;1999.90;999.90;;;0.80;99.90;;;;;;5013313;28;20116;-83
2022/01/10 00:56:48;;;;;;;532.55;280.17;;;0.70;99.90;;;;;;5027908;28;20041;-83
2022/01/10 00:59:13;;;;;;;1999.90;999.90;;;0.70;99.90;;;;;;5013091;28;20037;-84
2022/01/10 01:01:40;;;;;;;1999.90;999.90;;;0.80;99.90;;;;;;5012880;28;20461;-84
2022/01/10 01:04:06;;;;;;;1999.90;999.90;;;0.80;99.90;;;;;;5011770;28;20041;-83
2022/01/10 01:06:32;;;;;;;1999.90;999.90;;;0.70;99.90;;;;;;5028387;28;20067;-83
2022/01/10 01:09:03;;;;;;;1999.90;999.90;;;0.70;99.90;;;;;;5032378;28;20044;-83
2022/01/10 01:14:23;;;;;;;1999.90;999.90;;;0.60;99.90;;;;;;5029504;28;21662;-83
2022/01/10 01:16:58;;;;;;;1999.90;999.90;;;0.60;99.90;;;;;;5028971;28;20127;-84
2022/01/10 01:24:34;;;;;;;1999.90;999.90;;;0.40;99.90;;;;;;5028100;28;20548;-83
2022/01/10 01:27:00;;;;;;;1999.90;999.90;;;0.30;99.90;;;;;;5028595;28;20124;-83
2022/01/10 01:29:29;;;;;;;1999.90;999.90;;;0.30;99.90;;;;;;5011412;28;20513;-84
2022/01/10 01:31:55;;;;;;;1999.90;999.90;;;0.30;99.90;;;;;;5029220;28;20052;-83
2022/01/10 01:34:23;;;;;;;1999.90;999.90;;;0.30;99.90;;;;;;5028517;28;20040;-83
2022/01/10 01:36:52;;;;;;;1999.90;999.90;;;0.20;99.90;;;;;;5028483;28;20038;-84
2022/01/10 01:39:22;;;;;;;1999.90;999.90;;;0.20;99.90;;;;;;5024718;28;20405;-84
2022/01/10 01:41:56;;;;;;;1999.90;999.90;;;0.20;99.90;;;;;;5024244;28;20539;-84
2022/01/10 01:44:22;;;;;;;1999.90;999.90;;;0.20;99.90;;;;;;5028859;28;20437;-83
2022/01/10 01:46:48;;;;;;;1999.90;999.90;;;0.20;99.90;;;;;;5010017;28;20073;-83
2022/01/10 01:49:15;;;;;;;1999.90;999.90;;;0.20;99.90;;;;;;5007876;28;20092;-84
2022/01/10 01:51:40;;;;;;;1999.90;999.90;;;0.10;99.90;;;;;;5012368;28;20038;-83
2022/01/10 01:54:07;;;;;;;1999.90;999.90;;;0.10;99.90;;;;;;5028790;28;20103;-84
2022/01/10 01:56:34;;;;;;;1999.90;999.90;;;0.10;99.90;;;;;;5028617;28;20049;-84
2022/01/10 01:59:00;;;;;;;1999.90;999.90;;;0.00;99.90;;;;;;5026495;28;20468;-84
2022/01/10 02:01:28;;;;;;;1999.90;999.90;;;0.10;99.90;;;;;;5011132;28;20057;-84
2022/01/10 02:03:54;;;;;;;1999.90;999.90;;;0.10;99.90;;;;;;5010823;28;20052;-84
2022/01/10 02:06:19;;;;;;;1999.90;999.90;;;0.10;99.90;;;;;;5027762;28;20414;-84
2022/01/10 02:08:46;;;;;;;1999.90;999.90;;;0.10;99.90;;;;;;5028647;28;20041;-84
2022/01/10 02:11:14;;;;;;;1999.90;999.90;;;0.10;99.90;;;;;;5019657;28;20037;-84
2022/01/10 02:13:40;;;;;;;1999.90;999.90;;;0.10;99.90;;;;;;5028554;28;20043;-84
2022/01/10 02:16:09;;;;;;;1999.90;999.90;;;0.10;99.90;;;;;;5027798;28;20053;-84
2022/01/10 02:18:36;;;;;;;1999.90;999.90;;;0.10;99.90;;;;;;5012141;28;20045;-85
2022/01/10 02:21:05;;;;;;;1999.90;999.90;;;0.10;99.90;;;;;;5000247;28;20059;-84
2022/01/10 02:23:32;;;;;;;1999.90;999.90;;;0.10;99.90;;;;;;5028472;28;20053;-84
2022/01/10 02:25:58;;;;;;;1999.90;999.90;;;0.10;99.90;;;;;;5011399;28;20448;-84
2022/01/10 02:28:24;;;;;;;1999.90;999.90;;;0.10;99.90;;;;;;5010174;28;20118;-84
2022/01/10 02:30:56;;;;;;;1999.90;999.90;;;0.10;99.90;;;;;;5044981;28;20037;-85
2022/01/10 02:33:28;;;;;;;1999.90;999.90;;;0.10;99.90;;;;;;5012378;28;20038;-85
2022/01/10 02:36:13;;;;;;;1999.90;999.90;;;0.00;99.90;;;;;;5027778;28;20498;-84
2022/01/10 02:39:00;;;;;;;1999.90;999.90;;;0.00;99.90;;;;;;5011795;28;20052;-84
2022/01/10 02:41:35;;;;;;;1999.90;999.90;;;0.00;99.90;;;;;;5027216;28;20437;-85
2022/01/10 02:44:03;;;;;;;1999.90;999.90;;;-0.10;99.90;;;;;;5011122;28;20045;-85
2022/01/10 02:46:32;;;;;;;1999.90;999.90;;;-0.10;99.90;;;;;;5061012;28;20052;-84
2022/01/10 02:48:58;;;;;;;1999.90;999.90;;;0.00;99.90;;;;;;5064986;28;20041;-85
2022/01/10 02:51:24;;;;;;;1999.90;999.90;;;0.00;99.90;;;;;;5015587;28;20033;-84
2022/01/10 02:53:50;;;;;;;1999.90;999.90;;;0.10;99.90;;;;;;5014153;28;20079;-84
2022/01/10 02:56:16;;;;;;;1999.90;999.90;;;0.10;99.90;;;;;;5031482;28;20072;-85
2022/01/10 02:58:42;;;;;;;1999.90;999.90;;;0.10;99.90;;;;;;5031955;28;20462;-85
2022/01/10 03:01:07;;;;;;;1999.90;999.90;;;0.10;99.90;;;;;;5011011;28;20069;-85
2022/01/10 03:03:33;;;;;;;1999.90;999.90;;;0.00;99.90;;;;;;5030839;28;20042;-84
2022/01/10 03:06:01;;;;;;;1999.90;999.90;;;-0.10;99.90;;;;;;5031770;28;20052;-84
2022/01/10 03:08:28;;;;;;;1999.90;999.90;;;-0.10;99.90;;;;;;5015255;28;20115;-84
2022/01/10 03:10:54;;;;;;;1999.90;999.90;;;-0.20;99.90;;;;;;5014776;28;20577;-84
2022/01/10 03:13:20;;;;;;;1999.90;999.90;;;-0.20;99.90;;;;;;5025885;28;20038;-85
2022/01/10 03:15:45;;;;;;;1999.90;999.90;;;-0.30;99.90;;;;;;5047168;28;20148;-84
2022/01/10 03:18:11;;;;;;;1999.90;999.90;;;-0.30;99.90;;;;;;5031989;28;20040;-85
2022/01/10 03:20:37;;;;;;;1999.90;999.90;;;-0.30;99.90;;;;;;5014649;28;20080;-84
2022/01/10 03:23:03;;;;;;;1999.90;999.90;;;-0.30;99.90;;;;;;5014186;28;20033;-84
2022/01/10 03:25:29;;;;;;;1999.90;999.90;;;-0.30;99.90;;;;;;5014475;28;20042;-84
2022/01/10 03:27:55;;;;;;;1999.90;999.90;;;-0.30;99.90;;;;;;5031317;28;20044;-84
2022/01/10 03:30:21;;;;;;;1999.90;999.90;;;-0.20;99.90;;;;;;5029658;28;20509;-84
2022/01/10 03:32:48;;;;;;;1999.90;999.90;;;-0.20;99.90;;;;;;5031330;28;20037;-84
2022/01/10 03:35:14;;;;;;;1999.90;999.90;;;-0.20;99.90;;;;;;5012795;28;20049;-84
2022/01/10 03:37:40;;;;;;;1999.90;999.90;;;-0.10;99.90;;;;;;5008424;28;20494;-84
2022/01/10 03:40:07;;;;;;;1999.90;999.90;;;-0.10;99.90;;;;;;5025610;28;20049;-84
2022/01/10 03:42:34;;;;;;;1999.90;999.90;;;-0.10;99.90;;;;;;5014633;28;20501;-84
2022/01/10 03:45:01;;;;;;;1999.90;999.90;;;-0.10;99.90;;;;;;5030639;28;20045;-84
2022/01/10 03:47:27;;;;;;;1999.90;999.90;;;-0.20;99.90;;;;;;5029081;28;20045;-85
2022/01/10 03:49:52;;;;;;;1999.90;999.90;;;-0.20;99.90;;;;;;5014150;28;20033;-85
2022/01/10 03:52:18;;;;;;;1999.90;999.90;;;-0.20;99.90;;;;;;5031211;28;20058;-84
2022/01/10 03:54:44;;;;;;;1999.90;999.90;;;-0.30;99.90;;;;;;5023295;28;20502;-84
2022/01/10 03:57:11;;;;;;;1999.90;999.90;;;-0.30;99.90;;;;;;5014112;28;20099;-84
2022/01/10 03:59:37;;;;;;;1999.90;999.90;;;-0.30;99.90;;;;;;5030928;28;20453;-84
2022/01/10 04:02:04;;;;;;;1999.90;999.90;;;-0.40;99.90;;;;;;5012118;28;20041;-84
2022/01/10 04:04:30;;;;;;;1999.90;999.90;;;-0.40;99.90;;;;;;5062222;28;20095;-84
2022/01/10 04:06:56;;;;;;;1999.90;999.90;;;-0.40;99.90;;;;;;5030482;28;20757;-84
2022/01/10 04:09:22;;;;;;;1999.90;999.90;;;-0.40;99.90;;;;;;5047219;28;20037;-84
2022/01/10 04:11:48;;;;;;;1999.90;999.90;;;-0.40;99.90;;;;;;5025814;28;20045;-84
2022/01/10 04:14:14;;;;;;;1999.90;999.90;;;-0.40;99.90;;;;;;5013891;28;20379;-85
2022/01/10 04:16:40;;;;;;;1999.90;999.90;;;-0.40;99.90;;;;;;5029573;28;20099;-85
2022/01/10 04:19:06;;;;;;;1999.90;999.90;;;-0.40;99.90;;;;;;5012628;28;20467;-85
2022/01/10 04:21:32;;;;;;;1999.90;999.90;;;-0.30;99.90;;;;;;5013581;28;20370;-85
2022/01/10 04:23:58;;;;;;;1999.90;999.90;;;-0.40;99.90;;;;;;5013326;28;20111;-85
2022/01/10 04:26:24;;;;;;;1999.90;999.90;;;-0.40;99.90;;;;;;5010237;28;20042;-85
2022/01/10 04:28:49;;;;;;;1999.90;999.90;;;-0.40;99.90;;;;;;5046845;28;20406;-85
2022/01/10 04:31:16;;;;;;;1999.90;999.90;;;-0.40;99.90;;;;;;5030076;28;20042;-85
2022/01/10 04:33:41;;;;;;;1999.90;999.90;;;-0.40;99.90;;;;;;5045599;28;20072;-85
2022/01/10 04:36:07;;;;;;;1999.90;999.90;;;-0.40;99.90;;;;;;5014077;28;20049;-85
2022/01/10 04:38:34;;;;;;;1999.90;999.90;;;-0.40;99.90;;;;;;5013306;28;20517;-85
2022/01/10 04:41:01;;;;;;;1999.90;999.90;;;-0.50;99.90;;;;;;5013570;28;20052;-85
2022/01/10 04:43:27;;;;;;;1999.90;999.90;;;-0.50;99.90;;;;;;5026517;28;20043;-85
2022/01/10 04:45:53;;;;;;;1999.90;999.90;;;-0.50;99.90;;;;;;5045667;28;20121;-84
2022/01/10 04:48:19;;;;;;;1999.90;999.90;;;-0.50;99.90;;;;;;5046315;28;20064;-84
2022/01/10 04:53:33;;;;;;;1999.90;999.90;;;-0.60;99.90;;;;;;5046338;28;20144;-84
2022/01/10 04:55:58;;;;;;;1999.90;999.90;;;-0.50;99.90;;;;;;5012312;28;20460;-84
2022/01/10 04:58:24;;;;;;;1999.90;999.90;;;-0.50;99.90;;;;;;5045832;28;20092;-84
2022/01/10 05:00:53;;;;;;;1999.90;999.90;;;-0.40;99.90;;;;;;5028217;28;20068;-84
2022/01/10 05:03:20;;;;;;;1999.90;999.90;;;-0.40;99.90;;;;;;5044262;28;20501;-84
2022/01/10 05:05:46;;;;;;;1999.90;999.90;;;-0.40;99.90;;;;;;5028837;28;20065;-84
2022/01/10 05:08:12;;;;;;;1999.90;999.90;;;-0.40;99.90;;;;;;5029817;28;20069;-84
2022/01/10 05:10:37;;;;;;;1999.90;999.90;;;-0.50;99.90;;;;;;5024748;28;20083;-84
2022/01/10 05:13:03;;;;;;;1999.90;999.90;;;-0.60;99.90;;;;;;5061784;28;20069;-84
2022/01/10 05:15:29;;;;;;;1999.90;999.90;;;-0.60;99.90;;;;;;5011111;28;20045;-84
2022/01/10 05:17:55;;;;;;;1999.90;999.90;;;-0.60;99.90;;;;;;5029332;28;20038;-83
2022/01/10 05:20:20;;;;;;;1999.90;999.90;;;-0.60;99.90;;;;;;5025665;28;20045;-84
2022/01/10 05:22:46;;;;;;;1999.90;999.90;;;-0.60;99.90;;;;;;5012649;28;20079;-84
2022/01/10 05:25:12;;;;;;;1999.90;999.90;;;-0.60;99.90;;;;;;5029152;28;20064;-84
2022/01/10 05:27:38;;;;;;;1999.90;999.90;;;-0.60;99.90;;;;;;5008387;28;20065;-84
2022/01/10 05:30:04;;;;;;;1999.90;999.90;;;-0.60;99.90;;;;;;5059053;28;20034;-84
2022/01/10 05:32:30;;;;;;;1999.90;999.90;;;-0.60;99.90;;;;;;5045359;28;20076;-84
2022/01/10 05:34:55;;;;;;;1999.90;999.90;;;-0.60;99.90;;;;;;5012811;28;20049;-83
2022/01/10 05:37:21;;;;;;;1999.90;999.90;;;-0.70;99.90;;;;;;5005334;28;20045;-84
2022/01/10 05:39:47;;;;;;;1999.90;999.90;;;-0.70;99.90;;;;;;5012924;28;20045;-84
2022/01/10 05:42:14;;;;;;;1999.90;999.90;;;-0.70;99.90;;;;;;5045377;28;20053;-84
2022/01/10 05:44:40;;;;;;;1999.90;999.90;;;-0.70;99.90;;;;;;5061589;28;20103;-84
2022/01/10 05:47:06;;;;;;;1999.90;999.90;;;-0.70;99.90;;;;;;5027218;28;20405;-84
2022/01/10 05:49:34;;;;;;;1999.90;999.90;;;-0.70;99.90;;;;;;5028838;28;20037;-84
2022/01/10 05:52:01;;;;;;;1999.90;999.90;;;-0.70;99.90;;;;;;5028620;28;20052;-84
2022/01/10 05:54:27;;;;;;;1999.90;999.90;;;-0.70;99.90;;;;;;5027609;28;20056;-84
2022/01/10 05:56:53;;;;;;;1999.90;999.90;;;-0.70;99.90;;;;;;5042359;28;20048;-84
2022/01/10 05:59:19;;;;;;;1999.90;999.90;;;-0.70;99.90;;;;;;5028360;28;20041;-84
2022/01/10 06:01:45;;;;;;;1999.90;999.90;;;-0.60;99.90;;;;;;5011862;28;20045;-84
2022/01/10 06:04:10;;;;;;;1999.90;999.90;;;-0.60;99.90;;;;;;5026086;28;20041;-84
2022/01/10 06:06:37;;;;;;;1999.90;999.90;;;-0.60;99.90;;;;;;5011747;28;20049;-84
2022/01/10 06:09:03;;;;;;;1999.90;999.90;;;-0.70;99.90;;;;;;5012306;28;20425;-84
2022/01/10 06:11:29;;;;;;;1999.90;999.90;;;-0.70;99.90;;;;;;5053272;28;20048;-84
2022/01/10 06:13:55;;;;;;;1999.90;999.90;;;-0.70;99.90;;;;;;5028508;28;20041;-84
2022/01/10 06:16:20;;;;;;;1999.90;999.90;;;-0.70;99.90;;;;;;5027890;28;20047;-84
2022/01/10 06:18:46;;;;;;;1999.90;999.90;;;-0.70;99.90;;;;;;5010588;28;20033;-84
2022/01/10 06:21:12;;;;;;;1999.90;999.90;;;-0.60;99.90;;;;;;5011781;28;20044;-84
2022/01/10 06:23:37;;;;;;;1999.90;999.90;;;-0.60;99.90;;;;;;5030130;28;20415;-83
2022/01/10 06:26:03;;;;;;;1999.90;999.90;;;-0.60;99.90;;;;;;5032081;28;20123;-84
2022/01/10 06:28:29;;;;;;;1999.90;999.90;;;-0.60;99.90;;;;;;5014478;28;20401;-84
2022/01/10 06:30:55;;;;;;;1999.90;999.90;;;-0.60;99.90;;;;;;5015173;28;20556;-83
2022/01/10 06:33:21;;;;;;;1999.90;999.90;;;-0.60;99.90;;;;;;5032799;28;20037;-84
2022/01/10 06:35:46;;;;;;;1999.90;999.90;;;-0.70;99.90;;;;;;5031662;28;20509;-84
2022/01/10 06:38:12;;;;;;;1999.90;999.90;;;-0.70;99.90;;;;;;5029329;28;20447;-84
2022/01/10 06:40:38;;;;;;;1999.90;999.90;;;-0.80;99.90;;;;;;5048543;28;20041;-84
2022/01/10 06:43:04;;;;;;;1999.90;999.90;;;-0.80;99.90;;;;;;5031816;28;20188;-84
2022/01/10 06:45:30;;;;;;;1999.90;999.90;;;-0.80;99.90;;;;;;5028471;28;20084;-84
2022/01/10 06:47:56;;;;;;;1999.90;999.90;;;-0.90;99.90;;;;;;5030598;28;20458;-84
2022/01/10 06:50:22;;;;;;;1999.90;999.90;;;-0.80;99.90;;;;;;5014966;28;20048;-84
2022/01/10 06:52:50;;;;;;;1999.90;999.90;;;-0.80;99.90;;;;;;5049487;28;20397;-83
2022/01/10 06:55:16;;;;;;;1999.90;999.90;;;-0.80;99.90;;;;;;5046315;28;20155;-84
2022/01/10 06:57:42;;;;;;;1999.90;999.90;;;-0.80;99.90;;;;;;5031089;28;20190;-83
2022/01/10 07:00:09;;;;;;;1999.90;999.90;;;-0.90;99.90;;;;;;5014840;28;20056;-83
2022/01/10 07:02:35;;;;;;;1999.90;999.90;;;-0.80;99.90;;;;;;5044055;28;20038;-83
2022/01/10 07:05:01;;;;;;;1999.90;999.90;;;-0.90;99.90;;;;;;5029712;28;20045;-84
2022/01/10 07:07:26;;;;;;;1999.90;999.90;;;-0.80;99.90;;;;;;5015054;28;20057;-84
2022/01/10 07:09:52;;;;;;;1999.90;999.90;;;-0.80;99.90;;;;;;5031727;28;20037;-83
2022/01/10 07:12:18;;;;;;;1999.90;999.90;;;-0.80;99.90;;;;;;5029467;28;20493;-84
2022/01/10 07:14:44;;;;;;;1999.90;999.90;;;-0.80;99.90;;;;;;5014972;28;20513;-84
2022/01/10 07:17:09;;;;;;;1999.90;999.90;;;-0.80;99.90;;;;;;5030698;28;20144;-83
2022/01/10 07:19:36;;;;;;;1999.90;999.90;;;-0.80;99.90;;;;;;5046831;28;20045;-83
2022/01/10 07:22:03;;;;;;;1999.90;999.90;;;-0.80;99.90;;;;;;5006032;28;20037;-83
2022/01/10 07:24:29;;;;;;;1999.90;999.90;;;-0.80;99.90;;;;;;5030490;28;20041;-84
2022/01/10 07:26:55;;;;;;;1999.90;999.90;;;-0.80;99.90;;;;;;5030317;28;20148;-84
2022/01/10 07:29:21;;;;;;;1999.90;999.90;;;-0.70;99.90;;;;;;5012881;28;20041;-84
2022/01/10 07:31:46;;;;;;;1999.90;999.90;;;-0.70;99.90;;;;;;5030386;28;20071;-84
2022/01/10 07:34:15;;;;;;;1999.90;999.90;;;-0.70;99.90;;;;;;5013368;28;20037;-84
2022/01/10 07:36:41;;;;;;;1999.90;999.90;;;-0.70;99.90;;;;;;5030204;28;20422;-83
2022/01/10 07:39:07;;;;;;;1999.90;999.90;;;-0.70;99.90;;;;;;5008929;28;20048;-83
2022/01/10 07:41:33;;;;;;;1999.90;999.90;;;-0.70;99.90;;;;;;5023533;28;20041;-82
2022/01/10 07:43:59;;;;;;;1999.90;999.90;;;-0.70;99.90;;;;;;5030357;28;20049;-84
2022/01/10 07:46:26;;;;;;;1999.90;999.90;;;-0.70;99.90;;;;;;5029338;28;20402;-84
2022/01/10 07:48:54;;;;;;;1999.90;999.90;;;-0.70;99.90;;;;;;5029154;28;20220;-83
2022/01/10 07:51:20;;;;;;;1999.90;999.90;;;-0.80;99.90;;;;;;5029665;28;20095;-83
2022/01/10 07:53:46;;;;;;;1999.90;999.90;;;-0.70;99.90;;;;;;5046510;28;20076;-82
2022/01/10 07:56:12;;;;;;;1999.90;999.90;;;-0.70;99.90;;;;;;5029967;28;20462;-82
2022/01/10 07:58:38;;;;;;;1999.90;999.90;;;-0.60;99.90;;;;;;5028982;28;20060;-81
2022/01/10 08:01:04;;;;;;;1999.90;999.90;;;-0.60;99.90;;;;;;5012905;28;20571;-81
2022/01/10 08:03:30;;;;;;;1999.90;999.90;;;-0.60;99.90;;;;;;5012163;28;20041;-82
2022/01/10 08:05:55;;;;;;;1999.90;999.90;;;-0.50;99.90;;;;;;5012441;28;20052;-81
2022/01/10 08:08:22;;;;;;;1999.90;999.90;;;-0.50;99.90;;;;;;5012939;28;20119;-81
2022/01/10 08:10:47;;;;;;;1999.90;999.90;;;-0.40;99.90;;;;;;5028428;28;20084;-82
2022/01/10 08:13:13;;;;;;;1999.90;999.90;;;-0.40;99.90;;;;;;5026804;28;20454;-81
2022/01/10 08:15:39;;;;;;;1999.90;999.90;;;-0.30;99.90;;;;;;4984978;28;1187308;-81
2022/01/10 08:18:06;;;;;;;1999.90;999.90;;;-0.30;99.90;;;;;;5024038;28;20408;-81
2022/01/10 08:20:32;;;;;;;1999.90;999.90;;;-0.20;99.90;;;;;;5060627;28;20045;-82
2022/01/10 08:22:58;;;;;;;1999.90;999.90;;;-0.10;99.90;;;;;;5008240;28;21921;-81
2022/01/10 08:25:23;;;;;;;1999.90;999.90;;;0.00;99.90;;;;;;5043178;28;20540;-82
2022/01/10 08:27:49;;;;;;;1999.90;999.90;;;0.00;99.90;;;;;;5010499;28;20038;-82
2022/01/10 08:30:15;;;;;;;1999.90;999.90;;;0.00;99.90;;;;;;4536624;23;20144;-82
2022/01/10 08:32:41;;;;;;;1999.90;999.90;;;0.20;99.90;;;;;;4994358;28;20490;-82
2022/01/10 08:35:07;;;;;;;1999.90;999.90;;;0.30;99.90;;;;;;4989618;28;20046;-82
2022/01/10 08:37:33;;;;;;;1999.90;999.90;;;0.40;99.90;;;;;;5006841;28;20116;-82
2022/01/10 08:39:59;;;;;;;1999.90;999.90;;;0.60;99.90;;;;;;4995461;28;20510;-82
2022/01/10 08:42:28;;;;;;;1999.90;999.90;;;0.90;99.90;;;;;;4994026;28;20142;-82
2022/01/10 08:44:54;;;;;;;1999.90;999.90;;;1.10;99.90;;;;;;5015345;28;20042;-82
2022/01/10 08:47:20;;;;;;;1999.90;999.90;;;1.20;99.90;;;;;;4988610;28;20088;-83
2022/01/10 08:49:46;;;;;;;1999.90;999.90;;;1.40;99.90;;;;;;4990637;28;20087;-83
2022/01/10 08:52:12;;;;;;;1999.90;999.90;;;1.60;99.90;;;;;;5003267;28;20498;-82
2022/01/10 08:54:38;;;;;;;1999.90;999.90;;;1.80;99.90;;;;;;4996752;28;20796;-82
2022/01/10 08:57:04;;;;;;;1999.90;999.90;;;2.00;99.90;;;;;;5007265;28;20065;-82
2022/01/10 08:59:31;;;;;;;1999.90;999.90;;;2.20;99.90;;;;;;4990081;28;20049;-82
2022/01/10 09:01:58;;;;;;;1999.90;999.90;;;2.40;99.90;;;;;;5006700;28;20052;-82
2022/01/10 09:04:24;;;;;;;1999.90;999.90;;;2.50;99.90;;;;;;4979150;28;20226;-82
2022/01/10 09:06:52;;;;;;;1999.90;999.90;;;2.60;99.90;;;;;;4987546;28;20049;-82
2022/01/10 09:09:25;;;;;;;1999.90;999.90;;;2.60;99.90;;;;;;4986878;28;20040;-84
2022/01/10 09:11:54;;;;;;;1999.90;999.90;;;2.70;99.90;;;;;;5002680;28;20134;-84
2022/01/10 09:14:25;;;;;;;1999.90;999.90;;;2.80;99.90;;;;;;5006135;28;20129;-84
2022/01/10 09:16:52;;;;;;;1999.90;999.90;;;2.80;99.90;;;;;;4991469;28;20075;-82
2022/01/10 09:19:20;;;;;;;1999.90;999.90;;;2.90;99.90;;;;;;4991588;28;20491;-83
2022/01/10 09:21:47;;;;;;;1999.90;999.90;;;3.10;99.90;;;;;;5004733;28;20041;-83
2022/01/10 09:24:13;;;;;;;1999.90;999.90;;;3.30;99.90;;;;;;4999524;28;21316;-83
2022/01/10 09:26:40;;;;;;;1999.90;999.90;;;3.40;99.90;;;;;;5007626;28;20050;-83
2022/01/10 09:29:06;;;;;;;1999.90;999.90;;;3.40;99.90;;;;;;4992757;28;20522;-83
2022/01/10 09:31:33;;;;;;;1999.90;999.90;;;3.50;99.90;;;;;;4989211;28;20592;-83
2022/01/10 09:33:59;;;;;;;1999.90;999.90;;;3.60;99.90;;;;;;4992259;28;20049;-83
2022/01/10 09:36:27;;;;;;;1999.90;999.90;;;3.70;99.90;;;;;;4990926;28;20535;-83
2022/01/10 09:38:54;;;;;;;1999.90;999.90;;;3.80;99.90;;;;;;4989139;28;20069;-83
2022/01/10 09:41:21;;;;;;;1999.90;999.90;;;3.80;99.90;;;;;;5008353;28;20796;-83
2022/01/10 09:43:56;;;;;;;1999.90;999.90;;;3.80;99.90;;;;;;5008667;28;20137;-83
2022/01/10 09:46:22;;;;;;;1999.90;999.90;;;3.90;99.90;;;;;;5007370;28;20054;-83
2022/01/10 09:48:48;;;;;;;1999.90;999.90;;;3.90;99.90;;;;;;4998813;28;20103;-83
2022/01/10 09:51:14;;;;;;;1999.90;999.90;;;4.00;99.90;;;;;;4992287;28;20449;-83
2022/01/10 09:53:40;;;;;;;1999.90;999.90;;;4.10;99.90;;;;;;4992027;28;20053;-83
2022/01/10 09:56:06;;;;;;;1999.90;999.90;;;4.20;99.90;;;;;;4991988;28;20037;-83
2022/01/10 09:58:31;;;;;;;1999.90;999.90;;;4.20;99.90;;;;;;5009269;28;20054;-83
2022/01/10 10:00:59;;;;;;;1999.90;999.90;;;4.20;99.90;;;;;;4995652;28;20042;-83
2022/01/10 10:03:25;;;;;;;1999.90;999.90;;;4.20;99.90;;;;;;5005672;28;20049;-83
2022/01/10 10:05:55;;;;;;;1999.90;999.90;;;4.20;99.90;;;;;;4989045;28;20111;-83
2022/01/10 10:08:22;;;;;;;1999.90;999.90;;;4.20;99.90;;;;;;4999949;28;20056;-83
2022/01/10 10:10:49;;;;;;;1999.90;999.90;;;4.10;99.90;;;;;;4992304;28;20131;-83
2022/01/10 10:13:15;;;;;;;1999.90;999.90;;;4.10;99.90;;;;;;4991907;28;20077;-83
2022/01/10 10:15:44;;;;;;;1999.90;999.90;;;4.10;99.90;;;;;;5008787;28;20054;-82
2022/01/10 10:18:14;;;;;;;1999.90;999.90;;;4.10;99.90;;;;;;4988957;28;20089;-83
2022/01/10 10:20:41;;;;;;;1999.90;999.90;;;4.10;99.90;;;;;;4992668;28;20049;-83
2022/01/10 10:23:13;;;;;;;1999.90;999.90;;;4.10;99.90;;;;;;5008767;28;20041;-83
2022/01/10 10:25:54;;;;;;;1999.90;999.90;;;4.20;99.90;;;;;;4992142;28;20049;-83
2022/01/10 10:28:20;;;;;;;1999.90;999.90;;;4.30;99.90;;;;;;4991739;28;20050;-83
2022/01/10 10:30:46;;;;;;;1999.90;999.90;;;4.30;99.90;;;;;;5009028;28;20188;-83
2022/01/10 10:33:23;;;;;;;1999.90;999.90;;;4.40;99.90;;;;;;4987157;28;20133;-83
2022/01/10 10:36:14;;;;;;;1999.90;999.90;;;4.50;99.90;;;;;;4989686;28;20146;-83
2022/01/10 10:38:41;;;;;;;1999.90;999.90;;;4.60;99.90;;;;;;4978272;28;20084;-83
2022/01/10 10:41:06;;;;;;;1999.90;999.90;;;4.70;99.90;;;;;;4978093;28;20126;-83
2022/01/10 10:43:34;;;;;;;1999.90;999.90;;;4.90;99.90;;;;;;5008487;28;20239;-83
2022/01/10 10:46:01;;;;;;;1999.90;999.90;;;5.00;99.90;;;;;;4992763;28;20088;-83
2022/01/10 10:48:28;;;;;;;1999.90;999.90;;;5.10;99.90;;;;;;4991572;28;20053;-83
2022/01/10 10:50:58;;;;;;;1999.90;999.90;;;5.20;99.90;;;;;;4992312;28;20049;-83
2022/01/10 10:53:27;;;;;;;1999.90;999.90;;;5.20;99.90;;;;;;4987719;28;20041;-83
2022/01/10 10:55:56;;;;;;;1999.90;999.90;;;5.30;99.90;;;;;;5002187;28;20045;-83
2022/01/10 10:58:21;;;;;;;1999.90;999.90;;;5.40;99.90;;;;;;4988820;28;20054;-83
2022/01/10 11:00:47;;;;;;;1999.90;999.90;;;5.50;99.90;;;;;;4999561;28;20743;-82
2022/01/10 11:03:15;;;;;;;1999.90;999.90;;;5.50;99.90;;;;;;5008704;28;20084;-83
2022/01/10 11:05:44;;;;;;;1999.90;999.90;;;5.60;99.90;;;;;;4991164;28;20050;-82
2022/01/10 11:08:10;;;;;;;1999.90;999.90;;;5.60;99.90;;;;;;5000335;28;20058;-82
2022/01/10 11:10:38;;;;;;;1999.90;999.90;;;5.60;99.90;;;;;;4995808;28;20053;-82
2022/01/10 11:13:04;;;;;;;1999.90;999.90;;;5.60;99.90;;;;;;5000896;28;20042;-82
2022/01/10 11:15:31;;;;;;;1999.90;999.90;;;5.70;99.90;;;;;;5006047;28;20053;-82
2022/01/10 11:18:02;;;;;;;1999.90;999.90;;;5.80;99.90;;;;;;4994731;28;20050;-82
2022/01/10 11:20:29;;;;;;;1999.90;999.90;;;5.80;99.90;;;;;;5003724;28;20077;-82
2022/01/10 11:22:59;;;;;;;1999.90;999.90;;;6.00;99.90;;;;;;5007552;28;20118;-82
2022/01/10 11:25:29;;;;;;;1999.90;999.90;;;6.10;99.90;;;;;;4989681;28;20041;-82
2022/01/10 11:28:18;;;;;;;1999.90;999.90;;;6.20;99.90;;;;;;4993612;28;20084;-82
2022/01/10 11:30:45;;;;;;;1999.90;999.90;;;6.20;99.90;;;;;;4996205;28;20048;-82
2022/01/10 11:33:17;;;;;;;1999.90;999.90;;;6.30;99.90;;;;;;5010553;28;20046;-82
2022/01/10 11:35:45;;;;;;;1999.90;999.90;;;6.40;99.90;;;;;;4992720;28;20049;-82
2022/01/10 11:38:39;;;;;;;1999.90;999.90;;;6.50;99.90;;;;;;5007779;28;20125;-82
2022/01/10 11:41:09;;;;;;;;;;;6.50;99.90;;;;;;4994208;28;20137;-82
2022/01/10 11:44:07;;;;;;;1999.90;999.90;;;6.50;99.90;;;;;;5014145;28;19932;-82
2022/01/10 11:46:44;;;;;;;1999.90;999.90;;;6.60;99.90;;;;;;4979199;28;20245;-82
2022/01/10 11:49:10;;;;;;;1999.90;999.90;;;6.60;99.90;;;;;;5009704;28;20092;-82
2022/01/10 11:51:49;;;;;;;1999.90;999.90;;;6.60;99.90;;;;;;4988944;28;20049;-82
2022/01/10 11:54:26;;;;;;;1999.90;999.90;;;6.70;99.90;;;;;;5000270;28;20061;-83
2022/01/10 11:56:54;;;;;;;1999.90;999.90;;;6.70;99.90;;;;;;4995177;28;20268;-82
2022/01/10 11:59:35;;;;;;;1999.90;999.90;;;6.80;99.90;;;;;;5006831;28;20057;-82
2022/01/10 12:02:04;;;;;;;1999.90;999.90;;;6.80;99.90;;;;;;5004106;28;20086;-82
2022/01/10 12:04:35;;;;;;;1999.90;999.90;;;6.90;99.90;;;;;;4990401;28;20053;-82
2022/01/10 12:07:03;;;;;;;1999.90;999.90;;;6.90;99.90;;;;;;4990208;28;20165;-82
2022/01/10 12:09:29;;;;;;;1999.90;999.90;;;6.90;99.90;;;;;;4990308;28;20054;-82
2022/01/10 12:11:58;;;;;;;1999.90;999.90;;;6.90;99.90;;;;;;4991513;28;20046;-82
2022/01/10 12:14:24;;;;;;;1999.90;999.90;;;6.90;99.90;;;;;;4991767;28;20045;-82